createdAt,value
2023-01-13T00:00:20.376Z,1.30
2023-01-13T00:02:53.748Z,1.20
2023-01-13T00:05:07.124Z,0.30
2023-01-13T00:07:20.280Z,0.40
2023-01-13T00:09:33.603Z,0.30
2023-01-13T00:11:46.711Z,0.20
2023-01-13T00:14:00.623Z,0.40
2023-01-13T00:16:16.750Z,0.40
2023-01-13T00:18:31.113Z,0.30
2023-01-13T00:20:45.299Z,0.90
2023-01-13T00:23:00.154Z,0.30
2023-01-13T00:25:14.728Z,0.70
2023-01-13T00:27:28.519Z,0.70
2023-01-13T00:29:42.917Z,0.60
2023-01-13T00:31:59.362Z,0.60
2023-01-13T00:34:12.241Z,0.30
2023-01-13T00:36:27.801Z,0.70
2023-01-13T00:38:41.228Z,1.50
2023-01-13T00:41:01.777Z,0.30
2023-01-13T00:43:26.878Z,0.70
2023-01-13T00:45:41.306Z,0.70
2023-01-13T00:47:55.039Z,6.40
2023-01-13T00:50:08.739Z,4.50
2023-01-13T00:52:22.129Z,9.10
2023-01-13T00:54:35.147Z,6.60
2023-01-13T00:56:48.475Z,7.60
2023-01-13T00:59:03.439Z,7.40
2023-01-13T01:01:19.534Z,17.10
2023-01-13T01:03:32.897Z,15.10
2023-01-13T01:05:46.601Z,13.70
2023-01-13T01:07:59.738Z,3.30
2023-01-13T01:10:14.069Z,3.40
2023-01-13T01:12:27.232Z,3.10
2023-01-13T01:14:44.126Z,5.60
2023-01-13T01:16:57.913Z,6.70
2023-01-13T01:19:12.004Z,5.40
2023-01-13T01:21:27.692Z,6.20
2023-01-13T01:23:43.030Z,4.20
2023-01-13T01:25:56.719Z,1.50
2023-01-13T01:28:09.828Z,30.40
2023-01-13T01:30:23.972Z,42.20
2023-01-13T01:32:40.009Z,115.70
2023-01-13T01:34:53.900Z,104.60
2023-01-13T01:37:07.945Z,87.60
2023-01-13T01:39:21.942Z,35.10
2023-01-13T01:41:38.151Z,69.70
2023-01-13T01:44:03.919Z,25.80
2023-01-13T01:46:17.769Z,28.60
2023-01-13T01:48:32.420Z,62.50
2023-01-13T01:50:46.741Z,42.40
2023-01-13T01:53:03.309Z,12.10
2023-01-13T01:55:21.587Z,256.00
2023-01-13T01:57:42.691Z,118.00
2023-01-13T01:59:56.181Z,82.70
2023-01-13T02:02:10.187Z,40.30
2023-01-13T02:04:27.549Z,71.40
2023-01-13T02:06:41.349Z,89.50
2023-01-13T02:08:55.467Z,124.90
2023-01-13T02:11:29.059Z,140.80
2023-01-13T02:13:42.099Z,56.40
2023-01-13T02:16:05.173Z,34.70
2023-01-13T02:18:40.509Z,8.00
2023-01-13T02:21:11.665Z,16.90
2023-01-13T02:24:13.133Z,2.70
2023-01-13T02:27:02.000Z,1.00
2023-01-13T02:29:49.570Z,1.30
2023-01-13T02:32:08.356Z,9.70
2023-01-13T02:34:27.981Z,3.70
2023-01-13T02:36:49.960Z,3.60
2023-01-13T02:39:06.847Z,3.10
2023-01-13T02:41:42.230Z,2.30
2023-01-13T02:44:12.720Z,2.50
2023-01-13T02:46:32.063Z,1.40
2023-01-13T02:48:47.899Z,3.40
2023-01-13T02:51:04.794Z,1.10
2023-01-13T02:53:22.797Z,2.90
2023-01-13T02:55:41.481Z,2.80
2023-01-13T02:57:56.590Z,3.40
2023-01-13T03:00:13.478Z,5.30
2023-01-13T03:02:28.543Z,8.10
2023-01-13T03:04:56.239Z,1.20
2023-01-13T03:07:15.961Z,8.20
2023-01-13T03:09:36.451Z,75.50
2023-01-13T03:11:58.866Z,85.90
2023-01-13T03:14:22.028Z,32.50
2023-01-13T03:16:50.362Z,5.30
2023-01-13T03:19:15.728Z,0.80
2023-01-13T03:21:34.322Z,6.40
2023-01-13T03:23:55.180Z,19.50
2023-01-13T03:26:15.160Z,13.70
2023-01-13T03:28:33.730Z,4.90
2023-01-13T03:30:52.572Z,6.50
2023-01-13T03:33:11.220Z,0.80
2023-01-13T03:35:29.064Z,4.90
2023-01-13T03:37:45.703Z,2.60
2023-01-13T03:40:04.317Z,1.40
2023-01-13T03:42:22.356Z,1.90
2023-01-13T03:44:41.760Z,8.30
2023-01-13T03:47:01.482Z,15.30
2023-01-13T03:49:17.680Z,24.40
2023-01-13T03:51:34.890Z,37.40
2023-01-13T03:53:54.863Z,25.70
2023-01-13T03:56:15.632Z,47.20
2023-01-13T03:58:32.683Z,62.10
2023-01-13T04:00:51.446Z,100.80
2023-01-13T04:03:10.696Z,96.30
2023-01-13T04:05:24.432Z,112.50
2023-01-13T04:07:48.951Z,150.10
2023-01-13T04:10:03.669Z,147.70
2023-01-13T04:12:21.008Z,134.70
2023-01-13T04:14:35.050Z,128.90
2023-01-13T04:16:48.032Z,128.20
2023-01-13T04:19:01.065Z,126.60
2023-01-13T04:21:14.302Z,106.30
2023-01-13T04:23:28.961Z,78.30
2023-01-13T04:25:42.721Z,98.00
2023-01-13T04:27:56.168Z,97.10
2023-01-13T04:30:11.234Z,73.60
2023-01-13T04:32:24.208Z,86.40
2023-01-13T04:34:37.035Z,130.90
2023-01-13T04:36:50.761Z,173.30
2023-01-13T04:39:04.478Z,140.80
2023-01-13T04:41:17.576Z,113.80
2023-01-13T04:43:30.743Z,93.90
2023-01-13T04:45:44.407Z,122.00
2023-01-13T04:47:57.360Z,125.60
2023-01-13T04:50:12.465Z,132.60
2023-01-13T04:52:25.828Z,83.20
2023-01-13T04:54:39.413Z,69.20
2023-01-13T04:56:52.813Z,73.50
2023-01-13T04:59:06.593Z,76.00
2023-01-13T05:01:19.610Z,81.00
2023-01-13T05:03:33.054Z,55.10
2023-01-13T05:05:46.570Z,53.20
2023-01-13T05:08:00.952Z,62.10
2023-01-13T05:10:16.093Z,48.90
2023-01-13T05:12:51.603Z,55.80
2023-01-13T05:15:21.598Z,50.40
2023-01-13T05:17:35.141Z,46.50
2023-01-13T05:19:47.997Z,52.10
2023-01-13T05:22:18.311Z,47.40
2023-01-13T05:24:48.121Z,47.80
2023-01-13T05:27:01.290Z,38.90
2023-01-13T05:29:14.286Z,38.60
2023-01-13T05:31:27.344Z,42.60
2023-01-13T05:33:40.708Z,39.70
2023-01-13T05:35:53.783Z,133.90
2023-01-13T05:38:07.596Z,284.70
2023-01-13T05:40:38.840Z,293.30
2023-01-13T05:43:20.139Z,295.10
2023-01-13T05:45:33.260Z,291.70
2023-01-13T05:47:46.342Z,143.90
2023-01-13T05:49:59.674Z,122.70
2023-01-13T05:52:13.201Z,118.20
2023-01-13T05:54:26.109Z,129.40
2023-01-13T05:56:39.240Z,73.80
2023-01-13T05:58:52.938Z,61.60
2023-01-13T06:01:08.762Z,57.60
2023-01-13T06:03:23.337Z,56.90
2023-01-13T06:05:36.614Z,65.10
2023-01-13T06:07:49.699Z,43.40
2023-01-13T06:10:02.666Z,40.50
2023-01-13T06:12:17.517Z,47.20
2023-01-13T06:14:41.212Z,35.50
2023-01-13T06:16:54.440Z,31.50
2023-01-13T06:19:10.232Z,21.90
2023-01-13T06:21:23.344Z,22.90
2023-01-13T06:23:39.829Z,17.60
2023-01-13T06:25:58.903Z,19.40
2023-01-13T06:28:11.911Z,13.00
2023-01-13T06:30:25.310Z,8.50
2023-01-13T06:32:43.504Z,13.70
2023-01-13T06:35:06.234Z,13.50
2023-01-13T06:37:26.513Z,10.20
2023-01-13T06:39:40.231Z,11.40
2023-01-13T06:42:12.707Z,10.50
2023-01-13T06:44:27.145Z,9.80
2023-01-13T06:46:41.174Z,14.50
2023-01-13T06:48:54.161Z,98.60
2023-01-13T06:51:07.231Z,275.50
2023-01-13T06:53:20.954Z,279.70
2023-01-13T06:55:34.397Z,307.30
2023-01-13T06:57:56.863Z,235.00
2023-01-13T07:00:11.623Z,209.70
2023-01-13T07:02:24.802Z,249.40
2023-01-13T07:04:38.391Z,245.80
2023-01-13T07:06:52.204Z,230.10
2023-01-13T07:09:06.779Z,222.40
2023-01-13T07:11:20.548Z,293.10
2023-01-13T07:13:49.891Z,271.20
2023-01-13T07:16:04.616Z,279.00
2023-01-13T07:18:17.681Z,280.10
2023-01-13T07:20:31.158Z,262.30
2023-01-13T07:22:44.090Z,145.70
2023-01-13T07:24:57.732Z,153.50
2023-01-13T07:27:11.000Z,148.00
2023-01-13T07:29:24.141Z,101.40
2023-01-13T07:31:37.724Z,132.20
2023-01-13T07:33:50.702Z,119.90
2023-01-13T07:36:05.139Z,83.80
2023-01-13T07:38:19.311Z,78.10
2023-01-13T07:40:33.121Z,76.20
2023-01-13T07:43:02.854Z,70.30
2023-01-13T07:45:16.998Z,55.10
2023-01-13T07:47:30.095Z,44.50
2023-01-13T07:49:43.060Z,32.90
2023-01-13T07:51:56.908Z,39.20
2023-01-13T07:54:09.996Z,30.60
2023-01-13T07:56:23.055Z,32.60
2023-01-13T07:58:36.826Z,24.10
2023-01-13T08:00:49.892Z,24.70
2023-01-13T08:03:06.703Z,16.80
2023-01-13T08:05:20.674Z,11.10
2023-01-13T08:07:33.478Z,13.90
2023-01-13T08:09:46.385Z,18.10
2023-01-13T08:12:15.323Z,10.80
2023-01-13T08:14:28.837Z,9.70
2023-01-13T08:16:42.545Z,13.30
2023-01-13T08:18:55.596Z,5.10
2023-01-13T08:21:12.224Z,6.10
2023-01-13T08:23:26.811Z,4.10
2023-01-13T08:25:40.064Z,4.60
2023-01-13T08:27:54.643Z,10.90
2023-01-13T08:30:08.747Z,6.50
2023-01-13T08:32:21.970Z,2.70
2023-01-13T08:34:34.933Z,6.70
2023-01-13T08:36:47.752Z,1.30
2023-01-13T08:39:00.671Z,2.20
2023-01-13T08:41:38.038Z,1.70
2023-01-13T08:43:50.962Z,2.10
2023-01-13T08:46:06.976Z,1.40
2023-01-13T08:48:20.115Z,0.70
2023-01-13T08:50:33.138Z,2.30
2023-01-13T08:52:47.371Z,2.70
2023-01-13T08:55:00.327Z,3.70
2023-01-13T08:57:14.081Z,2.10
2023-01-13T08:59:27.113Z,3.50
2023-01-13T09:01:42.206Z,3.00
2023-01-13T09:03:55.744Z,1.60
2023-01-13T09:06:09.448Z,1.70
2023-01-13T09:08:22.493Z,1.80
2023-01-13T09:10:36.918Z,1.60
2023-01-13T09:13:06.409Z,1.20
2023-01-13T09:15:20.705Z,1.20
2023-01-13T09:17:34.182Z,27.20
2023-01-13T09:19:47.323Z,131.10
2023-01-13T09:22:00.538Z,125.80
2023-01-13T09:24:14.551Z,130.30
2023-01-13T09:26:27.921Z,151.20
2023-01-13T09:28:41.650Z,173.90
2023-01-13T09:30:54.697Z,186.60
2023-01-13T09:33:24.570Z,164.00
2023-01-13T09:35:39.630Z,136.80
2023-01-13T09:37:56.189Z,78.50
2023-01-13T09:40:13.031Z,107.70
2023-01-13T09:42:50.923Z,133.70
2023-01-13T09:45:07.928Z,264.50
2023-01-13T09:47:26.471Z,219.20
2023-01-13T09:49:42.418Z,214.80
2023-01-13T09:52:00.923Z,207.10
2023-01-13T09:54:21.143Z,197.00
2023-01-13T09:56:34.664Z,260.40
2023-01-13T09:58:48.902Z,250.00
2023-01-13T10:01:17.762Z,186.10
2023-01-13T10:03:33.274Z,171.20
2023-01-13T10:05:48.483Z,187.60
2023-01-13T10:08:06.555Z,155.80
2023-01-13T10:10:25.032Z,144.20
2023-01-13T10:12:55.425Z,64.00
2023-01-13T10:15:08.986Z,57.90
2023-01-13T10:17:30.794Z,76.60
2023-01-13T10:19:48.902Z,77.40
2023-01-13T10:22:26.967Z,65.50
2023-01-13T10:25:03.775Z,63.10
2023-01-13T10:27:25.135Z,85.50
2023-01-13T10:29:39.650Z,94.60
2023-01-13T10:31:52.482Z,166.90
2023-01-13T10:34:08.759Z,198.70
2023-01-13T10:36:24.103Z,161.20
2023-01-13T10:38:43.504Z,142.50
2023-01-13T10:40:58.283Z,146.30
2023-01-13T10:43:15.644Z,125.50
2023-01-13T10:45:32.115Z,107.70
2023-01-13T10:47:45.652Z,98.90
2023-01-13T10:50:23.542Z,110.50
2023-01-13T10:52:40.617Z,146.70
2023-01-13T10:54:59.088Z,129.70
2023-01-13T10:57:25.985Z,170.70
2023-01-13T10:59:39.172Z,193.40
2023-01-13T11:02:04.044Z,139.90
2023-01-13T11:04:38.135Z,132.00
2023-01-13T11:06:53.422Z,92.50
2023-01-13T11:09:06.591Z,115.60
2023-01-13T11:11:45.375Z,171.30
2023-01-13T11:14:20.953Z,166.60
2023-01-13T11:16:34.462Z,105.20
2023-01-13T11:19:03.380Z,100.60
2023-01-13T11:21:24.995Z,107.40
2023-01-13T11:23:43.072Z,109.00
2023-01-13T11:26:06.355Z,86.60
2023-01-13T11:28:43.215Z,191.70
2023-01-13T11:31:03.866Z,216.50
2023-01-13T11:33:39.442Z,183.60
2023-01-13T11:36:00.442Z,120.60
2023-01-13T11:38:22.334Z,111.00
2023-01-13T11:40:41.244Z,103.80
2023-01-13T11:42:58.232Z,65.10
2023-01-13T11:45:20.152Z,61.40
2023-01-13T11:47:33.512Z,61.40
2023-01-13T11:49:49.776Z,78.50
2023-01-13T11:52:09.872Z,167.10
2023-01-13T11:54:39.410Z,172.20
2023-01-13T11:57:14.943Z,134.30
2023-01-13T11:59:56.934Z,104.60
2023-01-13T12:02:29.550Z,117.80
2023-01-13T12:04:56.821Z,234.30
2023-01-13T12:07:17.743Z,200.20
2023-01-13T12:09:49.013Z,148.90
2023-01-13T12:12:28.622Z,127.40
2023-01-13T12:14:50.908Z,98.10
2023-01-13T12:17:08.792Z,242.60
2023-01-13T12:19:29.158Z,231.60
2023-01-13T12:21:49.775Z,258.10
2023-01-13T12:24:18.269Z,154.00
2023-01-13T12:26:33.381Z,112.00
2023-01-13T12:28:53.415Z,38.20
2023-01-13T12:31:08.485Z,76.50
2023-01-13T12:33:32.415Z,71.30
2023-01-13T12:35:51.327Z,65.30
2023-01-13T12:38:12.425Z,57.30
2023-01-13T12:40:39.768Z,54.10
2023-01-13T12:43:15.044Z,84.40
2023-01-13T12:45:31.543Z,101.80
2023-01-13T12:47:46.564Z,106.30
2023-01-13T12:50:36.383Z,142.20
2023-01-13T12:52:52.081Z,136.10
2023-01-13T12:55:19.054Z,170.20
2023-01-13T12:57:32.806Z,82.20
2023-01-13T12:59:52.721Z,134.30
2023-01-13T13:02:38.488Z,155.00
2023-01-13T13:04:53.479Z,135.20
2023-01-13T13:07:13.863Z,134.80
2023-01-13T13:09:32.671Z,92.40
2023-01-13T13:12:05.606Z,74.70
2023-01-13T13:14:39.599Z,72.40
2023-01-13T13:16:55.538Z,51.90
2023-01-13T13:19:37.421Z,46.50
2023-01-13T13:22:20.343Z,35.10
2023-01-13T13:24:34.941Z,43.70
2023-01-13T13:26:49.553Z,53.50
2023-01-13T13:29:23.776Z,52.80
2023-01-13T13:31:53.781Z,66.80
2023-01-13T13:34:33.862Z,59.50
2023-01-13T13:37:07.620Z,55.90
2023-01-13T13:39:46.394Z,66.50
2023-01-13T13:42:22.426Z,103.30
2023-01-13T13:44:56.404Z,76.40
2023-01-13T13:47:11.543Z,70.20
2023-01-13T13:49:37.925Z,99.00
2023-01-13T13:51:58.255Z,70.00
2023-01-13T13:54:13.491Z,66.40
2023-01-13T13:56:30.078Z,79.70
2023-01-13T13:58:43.823Z,77.90
2023-01-13T14:01:02.019Z,68.40
2023-01-13T14:03:29.529Z,45.40
2023-01-13T14:05:43.379Z,54.50
2023-01-13T14:08:03.034Z,48.30
2023-01-13T14:10:23.395Z,37.80
2023-01-13T14:12:43.640Z,50.70
2023-01-13T14:14:58.659Z,43.40
2023-01-13T14:17:21.808Z,63.30
2023-01-13T14:19:45.277Z,103.50
2023-01-13T14:22:02.015Z,153.00
2023-01-13T14:24:22.316Z,61.80
2023-01-13T14:26:36.727Z,54.60
2023-01-13T14:28:50.976Z,60.40
2023-01-13T14:31:04.408Z,35.80
2023-01-13T14:33:20.333Z,39.50
2023-01-13T14:35:33.247Z,46.00
2023-01-13T14:37:47.337Z,41.10
2023-01-13T14:40:01.735Z,73.20
2023-01-13T14:42:20.343Z,50.70
2023-01-13T14:44:36.608Z,44.50
2023-01-13T14:46:51.090Z,76.40
2023-01-13T14:49:08.056Z,42.50
2023-01-13T14:51:29.091Z,46.90
2023-01-13T14:53:47.928Z,62.10
2023-01-13T14:56:01.747Z,42.20
2023-01-13T14:58:32.025Z,61.60
2023-01-13T15:00:44.903Z,54.80
2023-01-13T15:03:12.174Z,44.80
2023-01-13T15:05:50.674Z,78.90
2023-01-13T15:08:05.709Z,44.50
2023-01-13T15:10:22.054Z,55.40
2023-01-13T15:12:40.813Z,70.90
2023-01-13T15:14:55.766Z,67.40
2023-01-13T15:17:12.525Z,59.70
2023-01-13T15:19:25.716Z,48.40
2023-01-13T15:21:39.558Z,68.30
2023-01-13T15:23:52.545Z,61.20
2023-01-13T15:26:06.726Z,67.10
2023-01-13T15:28:23.890Z,78.50
2023-01-13T15:30:37.851Z,72.00
2023-01-13T15:32:51.245Z,64.00
2023-01-13T15:35:05.205Z,60.50
2023-01-13T15:37:18.736Z,50.40
2023-01-13T15:39:32.828Z,69.50
2023-01-13T15:42:02.559Z,76.10
2023-01-13T15:44:34.022Z,55.20
2023-01-13T15:46:48.572Z,61.80
2023-01-13T15:49:04.040Z,57.60
2023-01-13T15:51:18.782Z,45.70
2023-01-13T15:53:32.273Z,39.90
2023-01-13T15:55:48.362Z,37.40
2023-01-13T15:58:03.139Z,48.40
2023-01-13T16:00:21.943Z,42.20
2023-01-13T16:02:35.153Z,31.80
2023-01-13T16:04:48.967Z,51.40
2023-01-13T16:07:02.728Z,70.30
2023-01-13T16:09:18.048Z,43.80
2023-01-13T16:11:31.235Z,27.80
2023-01-13T16:13:44.221Z,27.30
2023-01-13T16:15:57.810Z,75.30
2023-01-13T16:18:17.927Z,115.00
2023-01-13T16:20:31.598Z,117.20
2023-01-13T16:22:44.779Z,111.10
2023-01-13T16:24:57.936Z,99.80
2023-01-13T16:27:17.330Z,106.70
2023-01-13T16:29:31.142Z,139.00
2023-01-13T16:31:44.896Z,142.40
2023-01-13T16:33:58.295Z,120.30
2023-01-13T16:36:18.039Z,120.20
2023-01-13T16:38:31.639Z,111.20
2023-01-13T16:40:44.976Z,112.10
2023-01-13T16:42:58.329Z,86.90
2023-01-13T16:45:12.830Z,88.60
2023-01-13T16:47:26.520Z,83.90
2023-01-13T16:49:39.774Z,101.30
2023-01-13T16:51:53.118Z,169.40
2023-01-13T16:54:07.443Z,149.60
2023-01-13T16:56:31.288Z,142.40
2023-01-13T16:58:45.896Z,107.30
2023-01-13T17:01:00.000Z,126.30
2023-01-13T17:03:14.048Z,105.60
2023-01-13T17:05:27.239Z,82.80
2023-01-13T17:07:40.360Z,113.30
2023-01-13T17:09:53.663Z,65.20
2023-01-13T17:12:08.263Z,71.10
2023-01-13T17:14:24.581Z,67.90
2023-01-13T17:16:39.326Z,112.40
2023-01-13T17:18:53.833Z,141.80
2023-01-13T17:21:08.248Z,89.50
2023-01-13T17:23:21.532Z,87.40
2023-01-13T17:25:34.637Z,95.50
2023-01-13T17:27:48.888Z,106.20
2023-01-13T17:30:02.404Z,95.50
2023-01-13T17:32:17.962Z,86.10
2023-01-13T17:34:31.533Z,96.80
2023-01-13T17:36:47.985Z,72.80
2023-01-13T17:39:01.317Z,82.10
2023-01-13T17:41:15.091Z,51.80
2023-01-13T17:43:30.017Z,55.20
2023-01-13T17:45:46.724Z,57.50
2023-01-13T17:48:02.136Z,64.50
2023-01-13T17:50:16.238Z,60.20
2023-01-13T17:52:29.778Z,56.00
2023-01-13T17:54:45.041Z,53.80
2023-01-13T17:56:58.364Z,62.90
2023-01-13T17:59:12.791Z,83.80
2023-01-13T18:01:31.895Z,89.70
2023-01-13T18:03:46.435Z,161.70
2023-01-13T18:06:05.295Z,143.40
2023-01-13T18:08:18.418Z,103.70
2023-01-13T18:10:32.346Z,84.60
2023-01-13T18:12:45.327Z,89.20
2023-01-13T18:14:58.259Z,126.00
2023-01-13T18:17:11.201Z,134.90
2023-01-13T18:19:41.717Z,113.70
2023-01-13T18:22:11.783Z,73.50
2023-01-13T18:24:40.840Z,76.20
2023-01-13T18:27:10.765Z,82.20
2023-01-13T18:29:24.713Z,62.10
2023-01-13T18:31:37.684Z,68.60
2023-01-13T18:33:50.414Z,58.50
2023-01-13T18:36:09.115Z,55.60
2023-01-13T18:38:23.232Z,54.80
2023-01-13T18:40:36.421Z,77.10
2023-01-13T18:42:56.774Z,80.60
2023-01-13T18:45:10.692Z,88.20
2023-01-13T18:47:23.712Z,64.60
2023-01-13T18:49:37.773Z,57.20
2023-01-13T18:51:50.733Z,59.80
2023-01-13T18:54:03.983Z,45.80
2023-01-13T18:56:18.144Z,20.20
2023-01-13T18:58:31.734Z,28.20
2023-01-13T19:00:44.904Z,65.00
2023-01-13T19:05:19.593Z,42.90
2023-01-13T19:07:33.423Z,36.80
2023-01-13T19:09:46.559Z,45.80
2023-01-13T19:12:00.317Z,37.20
2023-01-13T19:14:13.355Z,41.60
2023-01-13T19:16:26.937Z,60.30
2023-01-13T19:18:40.245Z,103.40
2023-01-13T19:20:53.173Z,115.10
2023-01-13T19:23:06.074Z,100.60
2023-01-13T19:25:19.134Z,100.20
2023-01-13T19:27:32.496Z,91.10
2023-01-13T19:29:48.441Z,82.60
2023-01-13T19:32:06.723Z,60.30
2023-01-13T19:34:20.150Z,56.20
2023-01-13T19:36:33.604Z,95.30
2023-01-13T19:38:46.940Z,66.60
2023-01-13T19:41:01.337Z,48.00
2023-01-13T19:43:31.457Z,40.80
2023-01-13T19:45:45.907Z,30.70
2023-01-13T19:47:58.964Z,46.50
2023-01-13T19:50:13.227Z,37.00
2023-01-13T19:52:27.812Z,49.40
2023-01-13T19:54:41.185Z,52.30
2023-01-13T19:56:56.208Z,55.80
2023-01-13T19:59:10.097Z,54.40
2023-01-13T20:01:26.044Z,66.80
2023-01-13T20:03:40.107Z,95.10
2023-01-13T20:05:53.834Z,48.90
2023-01-13T20:08:07.158Z,42.40
2023-01-13T20:10:21.745Z,31.10
2023-01-13T20:12:34.748Z,25.70
2023-01-13T20:14:48.718Z,52.70
2023-01-13T20:17:02.498Z,57.20
2023-01-13T20:19:16.387Z,27.80
2023-01-13T20:21:29.838Z,27.90
2023-01-13T20:23:43.037Z,24.00
2023-01-13T20:25:56.425Z,15.10
2023-01-13T20:28:09.677Z,21.80
2023-01-13T20:30:22.750Z,15.60
2023-01-13T20:32:36.338Z,26.70
2023-01-13T20:34:49.879Z,35.00
2023-01-13T20:37:04.021Z,21.40
2023-01-13T20:39:23.940Z,14.70
2023-01-13T20:41:53.837Z,7.80
2023-01-13T20:44:08.699Z,11.60
2023-01-13T20:46:22.083Z,8.50
2023-01-13T20:48:35.090Z,7.10
2023-01-13T20:50:48.210Z,3.90
2023-01-13T20:53:01.341Z,4.70
2023-01-13T20:55:18.350Z,7.90
2023-01-13T20:57:31.240Z,4.40
2023-01-13T20:59:44.768Z,1.70
2023-01-13T21:01:59.219Z,6.90
2023-01-13T21:04:12.978Z,3.20
2023-01-13T21:06:26.677Z,6.10
2023-01-13T21:08:40.463Z,4.80
2023-01-13T21:10:53.788Z,1.60
2023-01-13T21:13:23.999Z,3.20
2023-01-13T21:15:37.530Z,0.40
2023-01-13T21:18:07.796Z,3.50
2023-01-13T21:20:20.751Z,3.80
2023-01-13T21:22:33.888Z,0.90
2023-01-13T21:24:46.818Z,2.50
2023-01-13T21:27:01.267Z,0.80
2023-01-13T21:29:14.687Z,1.80
2023-01-13T21:31:28.025Z,1.20
2023-01-13T21:33:41.140Z,0.30
2023-01-13T21:35:54.601Z,0.70
2023-01-13T21:38:08.879Z,0.60
2023-01-13T21:40:22.278Z,0.90
2023-01-13T21:42:51.889Z,1.40
2023-01-13T21:45:21.610Z,4.60
2023-01-13T21:47:53.480Z,3.90
2023-01-13T21:50:07.647Z,1.00
2023-01-13T21:52:21.778Z,2.20
2023-01-13T21:54:34.731Z,1.10
2023-01-13T21:56:48.096Z,0.20
2023-01-13T21:59:01.330Z,0.80
2023-01-13T22:01:14.174Z,0.20
2023-01-13T22:03:27.453Z,0.80
2023-01-13T22:05:41.010Z,0.20
2023-01-13T22:07:54.979Z,0.50
2023-01-13T22:10:08.784Z,0.30
2023-01-13T22:12:24.564Z,0.50
2023-01-13T22:14:37.602Z,0.20
2023-01-13T22:16:51.864Z,2.20
2023-01-13T22:19:05.551Z,2.60
2023-01-13T22:21:19.097Z,0.20
2023-01-13T22:23:32.741Z,0.40
2023-01-13T22:25:45.936Z,0.70
2023-01-13T22:28:04.911Z,1.50
2023-01-13T22:30:20.167Z,8.20
2023-01-13T22:32:33.189Z,6.80
2023-01-13T22:34:46.349Z,2.20
2023-01-13T22:36:59.401Z,2.60
2023-01-13T22:39:13.430Z,5.10
2023-01-13T22:41:26.579Z,7.40
2023-01-13T22:43:40.389Z,8.70
2023-01-13T22:46:02.960Z,10.30
2023-01-13T22:50:26.414Z,3.40
2023-01-13T22:52:39.646Z,5.10
2023-01-13T22:54:53.273Z,3.30
2023-01-13T22:57:06.954Z,3.30
2023-01-13T22:59:23.059Z,2.50
2023-01-13T23:01:38.331Z,2.40
2023-01-13T23:03:53.571Z,5.20
2023-01-13T23:06:07.855Z,5.00
2023-01-13T23:08:21.098Z,4.10
2023-01-13T23:10:34.136Z,16.00
2023-01-13T23:12:50.181Z,14.10
2023-01-13T23:15:03.929Z,54.00
2023-01-13T23:17:17.261Z,9.90
2023-01-13T23:19:31.050Z,8.90
2023-01-13T23:21:44.569Z,16.90
2023-01-13T23:23:59.027Z,27.70
2023-01-13T23:26:13.561Z,12.60
2023-01-13T23:28:26.431Z,8.30
2023-01-13T23:30:42.856Z,4.20
2023-01-13T23:32:56.072Z,1.60
2023-01-13T23:35:10.079Z,4.20
2023-01-13T23:37:23.504Z,2.60
2023-01-13T23:39:36.631Z,2.10
2023-01-13T23:41:49.590Z,1.00
2023-01-13T23:44:04.135Z,0.50
2023-01-13T23:46:18.262Z,0.20
2023-01-13T23:48:31.898Z,0.40
2023-01-13T23:50:45.100Z,1.10
2023-01-13T23:52:58.043Z,0.30
2023-01-13T23:55:11.972Z,0.90
2023-01-13T23:57:25.249Z,0.40
2023-01-13T23:59:38.513Z,1.70
